sensor_id;sensor_type;location;lat;lon;timestamp;P1;durP1;ratioP1;P2;durP2;ratioP2
15952;SDS011;8075;47.766;8.846;2024-02-04T00:00:02;7.85;;;7.18;;
15952;SDS011;8075;47.766;8.846;2024-02-04T00:02:30;7.82;;;7.13;;
15952;SDS011;8075;47.766;8.846;2024-02-04T00:04:56;7.68;;;6.97;;
15952;SDS011;8075;47.766;8.846;2024-02-04T00:07:22;7.55;;;6.85;;
15952;SDS011;8075;47.766;8.846;2024-02-04T00:09:48;6.60;;;6.00;;
15952;SDS011;8075;47.766;8.846;2024-02-04T00:12:14;6.55;;;6.03;;
15952;SDS011;8075;47.766;8.846;2024-02-04T00:14:40;6.78;;;5.80;;
15952;SDS011;8075;47.766;8.846;2024-02-04T00:17:06;6.70;;;6.20;;
15952;SDS011;8075;47.766;8.846;2024-02-04T00:19:32;6.00;;;5.50;;
15952;SDS011;8075;47.766;8.846;2024-02-04T00:21:58;5.82;;;5.32;;
15952;SDS011;8075;47.766;8.846;2024-02-04T00:24:24;5.15;;;4.75;;
15952;SDS011;8075;47.766;8.846;2024-02-04T00:26:50;5.25;;;4.75;;
15952;SDS011;8075;47.766;8.846;2024-02-04T00:29:16;5.25;;;4.75;;
15952;SDS011;8075;47.766;8.846;2024-02-04T00:31:42;4.80;;;4.40;;
15952;SDS011;8075;47.766;8.846;2024-02-04T00:34:08;4.60;;;4.30;;
15952;SDS011;8075;47.766;8.846;2024-02-04T00:36:34;5.45;;;4.80;;
15952;SDS011;8075;47.766;8.846;2024-02-04T00:39:00;5.03;;;4.63;;
15952;SDS011;8075;47.766;8.846;2024-02-04T00:41:27;5.47;;;5.07;;
15952;SDS011;8075;47.766;8.846;2024-02-04T00:43:53;5.82;;;5.32;;
15952;SDS011;8075;47.766;8.846;2024-02-04T00:46:19;6.30;;;5.80;;
15952;SDS011;8075;47.766;8.846;2024-02-04T00:48:45;6.57;;;5.97;;
15952;SDS011;8075;47.766;8.846;2024-02-04T00:51:11;7.15;;;6.55;;
15952;SDS011;8075;47.766;8.846;2024-02-04T00:53:38;7.15;;;6.45;;
15952;SDS011;8075;47.766;8.846;2024-02-04T00:56:04;7.03;;;6.32;;
15952;SDS011;8075;47.766;8.846;2024-02-04T00:58:30;5.72;;;5.22;;
15952;SDS011;8075;47.766;8.846;2024-02-04T01:00:56;5.18;;;4.70;;
15952;SDS011;8075;47.766;8.846;2024-02-04T01:03:22;4.70;;;4.30;;
15952;SDS011;8075;47.766;8.846;2024-02-04T01:05:48;3.92;;;3.63;;
15952;SDS011;8075;47.766;8.846;2024-02-04T01:08:14;3.90;;;3.60;;
15952;SDS011;8075;47.766;8.846;2024-02-04T01:10:40;3.92;;;3.63;;
15952;SDS011;8075;47.766;8.846;2024-02-04T01:13:06;3.83;;;3.53;;
15952;SDS011;8075;47.766;8.846;2024-02-04T01:15:32;4.53;;;4.13;;
15952;SDS011;8075;47.766;8.846;2024-02-04T01:17:59;4.00;;;3.67;;
15952;SDS011;8075;47.766;8.846;2024-02-04T01:20:25;3.53;;;3.23;;
15952;SDS011;8075;47.766;8.846;2024-02-04T01:22:52;3.10;;;2.90;;
15952;SDS011;8075;47.766;8.846;2024-02-04T01:25:18;3.00;;;2.75;;
15952;SDS011;8075;47.766;8.846;2024-02-04T01:27:44;3.20;;;2.97;;
15952;SDS011;8075;47.766;8.846;2024-02-04T01:30:10;2.93;;;2.73;;
15952;SDS011;8075;47.766;8.846;2024-02-04T01:32:36;2.60;;;2.40;;
15952;SDS011;8075;47.766;8.846;2024-02-04T01:35:02;2.95;;;2.75;;
15952;SDS011;8075;47.766;8.846;2024-02-04T01:37:28;3.15;;;2.95;;
15952;SDS011;8075;47.766;8.846;2024-02-04T01:39:54;3.50;;;3.20;;
15952;SDS011;8075;47.766;8.846;2024-02-04T01:42:20;3.20;;;3.00;;
15952;SDS011;8075;47.766;8.846;2024-02-04T01:44:46;3.22;;;3.03;;
15952;SDS011;8075;47.766;8.846;2024-02-04T01:47:12;3.90;;;3.60;;
15952;SDS011;8075;47.766;8.846;2024-02-04T01:49:39;3.30;;;3.00;;
15952;SDS011;8075;47.766;8.846;2024-02-04T01:52:05;2.97;;;2.78;;
15952;SDS011;8075;47.766;8.846;2024-02-04T01:54:32;2.90;;;2.70;;
15952;SDS011;8075;47.766;8.846;2024-02-04T01:56:59;3.60;;;3.30;;
15952;SDS011;8075;47.766;8.846;2024-02-04T01:59:29;3.25;;;3.05;;
15952;SDS011;8075;47.766;8.846;2024-02-04T02:02:01;3.22;;;3.03;;
15952;SDS011;8075;47.766;8.846;2024-02-04T02:04:28;3.05;;;2.85;;
15952;SDS011;8075;47.766;8.846;2024-02-04T02:06:54;2.93;;;2.73;;
15952;SDS011;8075;47.766;8.846;2024-02-04T02:09:21;3.10;;;2.75;;
15952;SDS011;8075;47.766;8.846;2024-02-04T02:11:47;3.60;;;3.30;;
15952;SDS011;8075;47.766;8.846;2024-02-04T02:14:16;3.40;;;3.10;;
15952;SDS011;8075;47.766;8.846;2024-02-04T02:16:44;3.60;;;3.30;;
15952;SDS011;8075;47.766;8.846;2024-02-04T02:21:44;3.95;;;3.65;;
15952;SDS011;8075;47.766;8.846;2024-02-04T02:26:50;3.90;;;3.60;;
15952;SDS011;8075;47.766;8.846;2024-02-04T02:29:16;4.25;;;3.95;;
15952;SDS011;8075;47.766;8.846;2024-02-04T02:31:42;3.95;;;3.65;;
15952;SDS011;8075;47.766;8.846;2024-02-04T02:34:09;4.30;;;3.90;;
15952;SDS011;8075;47.766;8.846;2024-02-04T02:37:20;3.78;;;3.47;;
15952;SDS011;8075;47.766;8.846;2024-02-04T02:39:26;3.57;;;3.27;;
15952;SDS011;8075;47.766;8.846;2024-02-04T02:41:54;3.03;;;2.83;;
15952;SDS011;8075;47.766;8.846;2024-02-04T02:44:21;3.17;;;2.87;;
15952;SDS011;8075;47.766;8.846;2024-02-04T02:46:47;3.03;;;2.83;;
15952;SDS011;8075;47.766;8.846;2024-02-04T02:49:14;2.50;;;2.30;;
15952;SDS011;8075;47.766;8.846;2024-02-04T02:51:40;2.65;;;2.45;;
15952;SDS011;8075;47.766;8.846;2024-02-04T02:54:06;2.60;;;2.40;;
15952;SDS011;8075;47.766;8.846;2024-02-04T02:56:32;2.75;;;2.55;;
15952;SDS011;8075;47.766;8.846;2024-02-04T02:58:58;2.38;;;2.10;;
15952;SDS011;8075;47.766;8.846;2024-02-04T03:01:24;2.10;;;2.00;;
15952;SDS011;8075;47.766;8.846;2024-02-04T03:03:50;2.93;;;2.53;;
15952;SDS011;8075;47.766;8.846;2024-02-04T03:06:16;3.50;;;3.22;;
15952;SDS011;8075;47.766;8.846;2024-02-04T03:08:42;3.00;;;2.80;;
15952;SDS011;8075;47.766;8.846;2024-02-04T03:11:08;3.08;;;2.88;;
15952;SDS011;8075;47.766;8.846;2024-02-04T03:13:34;3.83;;;2.95;;
15952;SDS011;8075;47.766;8.846;2024-02-04T03:15:59;2.78;;;2.58;;
15952;SDS011;8075;47.766;8.846;2024-02-04T03:18:26;2.83;;;2.63;;
15952;SDS011;8075;47.766;8.846;2024-02-04T03:20:52;2.60;;;2.40;;
15952;SDS011;8075;47.766;8.846;2024-02-04T03:23:18;2.60;;;2.40;;
15952;SDS011;8075;47.766;8.846;2024-02-04T03:25:44;2.77;;;2.57;;
15952;SDS011;8075;47.766;8.846;2024-02-04T03:28:10;2.40;;;2.20;;
15952;SDS011;8075;47.766;8.846;2024-02-04T03:30:36;2.60;;;2.40;;
15952;SDS011;8075;47.766;8.846;2024-02-04T03:33:02;2.70;;;2.50;;
15952;SDS011;8075;47.766;8.846;2024-02-04T03:35:28;4.20;;;2.75;;
15952;SDS011;8075;47.766;8.846;2024-02-04T03:37:54;3.07;;;2.87;;
15952;SDS011;8075;47.766;8.846;2024-02-04T03:40:20;2.92;;;2.72;;
15952;SDS011;8075;47.766;8.846;2024-02-04T03:42:49;2.85;;;2.65;;
15952;SDS011;8075;47.766;8.846;2024-02-04T03:45:15;2.47;;;2.28;;
15952;SDS011;8075;47.766;8.846;2024-02-04T03:47:41;2.25;;;2.05;;
15952;SDS011;8075;47.766;8.846;2024-02-04T03:50:07;2.67;;;2.28;;
15952;SDS011;8075;47.766;8.846;2024-02-04T03:52:33;2.67;;;2.47;;
15952;SDS011;8075;47.766;8.846;2024-02-04T03:54:59;2.30;;;2.20;;
15952;SDS011;8075;47.766;8.846;2024-02-04T03:57:25;2.38;;;2.17;;
15952;SDS011;8075;47.766;8.846;2024-02-04T03:59:51;2.60;;;2.40;;
15952;SDS011;8075;47.766;8.846;2024-02-04T04:02:17;2.50;;;2.30;;
15952;SDS011;8075;47.766;8.846;2024-02-04T04:04:43;2.53;;;2.22;;
15952;SDS011;8075;47.766;8.846;2024-02-04T04:07:12;2.40;;;2.20;;
15952;SDS011;8075;47.766;8.846;2024-02-04T04:09:38;2.40;;;2.20;;
15952;SDS011;8075;47.766;8.846;2024-02-04T04:12:04;2.60;;;2.40;;
15952;SDS011;8075;47.766;8.846;2024-02-04T04:14:30;2.40;;;2.20;;
15952;SDS011;8075;47.766;8.846;2024-02-04T04:16:56;2.28;;;1.88;;
15952;SDS011;8075;47.766;8.846;2024-02-04T04:19:22;2.22;;;2.03;;
15952;SDS011;8075;47.766;8.846;2024-02-04T04:21:49;1.83;;;1.73;;
15952;SDS011;8075;47.766;8.846;2024-02-04T04:24:15;2.20;;;1.90;;
15952;SDS011;8075;47.766;8.846;2024-02-04T04:26:44;3.03;;;1.67;;
15952;SDS011;8075;47.766;8.846;2024-02-04T04:29:10;2.20;;;1.75;;
15952;SDS011;8075;47.766;8.846;2024-02-04T04:31:36;3.03;;;1.50;;
15952;SDS011;8075;47.766;8.846;2024-02-04T04:34:02;2.00;;;1.50;;
15952;SDS011;8075;47.766;8.846;2024-02-04T04:36:28;1.90;;;1.80;;
15952;SDS011;8075;47.766;8.846;2024-02-04T04:38:54;2.13;;;1.70;;
15952;SDS011;8075;47.766;8.846;2024-02-04T04:41:20;1.80;;;1.70;;
15952;SDS011;8075;47.766;8.846;2024-02-04T04:43:46;2.90;;;1.83;;
15952;SDS011;8075;47.766;8.846;2024-02-04T04:46:12;2.58;;;2.00;;
15952;SDS011;8075;47.766;8.846;2024-02-04T04:48:38;1.90;;;1.60;;
15952;SDS011;8075;47.766;8.846;2024-02-04T04:51:04;2.25;;;1.63;;
15952;SDS011;8075;47.766;8.846;2024-02-04T04:53:30;1.90;;;1.60;;
15952;SDS011;8075;47.766;8.846;2024-02-04T04:55:56;2.20;;;1.57;;
15952;SDS011;8075;47.766;8.846;2024-02-04T04:58:22;1.70;;;1.60;;
15952;SDS011;8075;47.766;8.846;2024-02-04T05:00:49;1.93;;;1.70;;
15952;SDS011;8075;47.766;8.846;2024-02-04T05:03:15;1.98;;;1.88;;
15952;SDS011;8075;47.766;8.846;2024-02-04T05:05:41;1.95;;;1.60;;
15952;SDS011;8075;47.766;8.846;2024-02-04T05:08:06;2.45;;;1.50;;
15952;SDS011;8075;47.766;8.846;2024-02-04T05:10:32;1.50;;;1.40;;
15952;SDS011;8075;47.766;8.846;2024-02-04T05:12:58;1.50;;;1.40;;
15952;SDS011;8075;47.766;8.846;2024-02-04T05:15:24;1.50;;;1.40;;
15952;SDS011;8075;47.766;8.846;2024-02-04T05:17:50;1.40;;;1.30;;
15952;SDS011;8075;47.766;8.846;2024-02-04T05:20:16;1.40;;;1.30;;
15952;SDS011;8075;47.766;8.846;2024-02-04T05:22:42;1.27;;;1.17;;
15952;SDS011;8075;47.766;8.846;2024-02-04T05:25:08;3.77;;;1.20;;
15952;SDS011;8075;47.766;8.846;2024-02-04T05:27:35;2.58;;;1.10;;
15952;SDS011;8075;47.766;8.846;2024-02-04T05:30:01;1.63;;;1.20;;
15952;SDS011;8075;47.766;8.846;2024-02-04T05:32:28;1.77;;;1.00;;
15952;SDS011;8075;47.766;8.846;2024-02-04T05:34:54;1.90;;;0.80;;
15952;SDS011;8075;47.766;8.846;2024-02-04T05:37:20;0.90;;;0.80;;
15952;SDS011;8075;47.766;8.846;2024-02-04T05:39:46;0.90;;;0.80;;
15952;SDS011;8075;47.766;8.846;2024-02-04T05:42:13;1.98;;;1.00;;
15952;SDS011;8075;47.766;8.846;2024-02-04T05:44:39;1.10;;;0.80;;
15952;SDS011;8075;47.766;8.846;2024-02-04T05:47:04;0.70;;;0.70;;
15952;SDS011;8075;47.766;8.846;2024-02-04T05:49:30;1.38;;;0.90;;
15952;SDS011;8075;47.766;8.846;2024-02-04T05:51:56;0.80;;;0.70;;
15952;SDS011;8075;47.766;8.846;2024-02-04T05:54:22;2.40;;;0.63;;
15952;SDS011;8075;47.766;8.846;2024-02-04T05:56:48;0.88;;;0.70;;
15952;SDS011;8075;47.766;8.846;2024-02-04T05:59:14;0.77;;;0.60;;
15952;SDS011;8075;47.766;8.846;2024-02-04T06:01:41;1.40;;;0.70;;
15952;SDS011;8075;47.766;8.846;2024-02-04T06:04:08;1.35;;;0.70;;
15952;SDS011;8075;47.766;8.846;2024-02-04T06:06:34;1.90;;;0.82;;
15952;SDS011;8075;47.766;8.846;2024-02-04T06:09:00;0.70;;;0.70;;
15952;SDS011;8075;47.766;8.846;2024-02-04T06:11:26;1.80;;;0.77;;
15952;SDS011;8075;47.766;8.846;2024-02-04T06:13:52;1.40;;;0.60;;
15952;SDS011;8075;47.766;8.846;2024-02-04T06:16:18;0.50;;;0.50;;
15952;SDS011;8075;47.766;8.846;2024-02-04T06:18:44;1.33;;;0.70;;
15952;SDS011;8075;47.766;8.846;2024-02-04T06:21:10;0.50;;;0.50;;
15952;SDS011;8075;47.766;8.846;2024-02-04T06:23:37;0.80;;;0.45;;
15952;SDS011;8075;47.766;8.846;2024-02-04T06:26:04;0.82;;;0.60;;
15952;SDS011;8075;47.766;8.846;2024-02-04T06:28:30;0.57;;;0.43;;
15952;SDS011;8075;47.766;8.846;2024-02-04T06:30:56;0.47;;;0.47;;
15952;SDS011;8075;47.766;8.846;2024-02-04T06:33:22;0.57;;;0.40;;
15952;SDS011;8075;47.766;8.846;2024-02-04T06:35:49;0.43;;;0.40;;
15952;SDS011;8075;47.766;8.846;2024-02-04T06:38:15;0.50;;;0.40;;
15952;SDS011;8075;47.766;8.846;2024-02-04T06:40:41;0.68;;;0.32;;
15952;SDS011;8075;47.766;8.846;2024-02-04T06:43:07;0.40;;;0.40;;
15952;SDS011;8075;47.766;8.846;2024-02-04T06:45:33;0.43;;;0.40;;
15952;SDS011;8075;47.766;8.846;2024-02-04T06:47:59;0.40;;;0.30;;
15952;SDS011;8075;47.766;8.846;2024-02-04T06:50:25;0.83;;;0.43;;
15952;SDS011;8075;47.766;8.846;2024-02-04T06:52:51;0.80;;;0.30;;
15952;SDS011;8075;47.766;8.846;2024-02-04T06:55:17;1.27;;;0.40;;
15952;SDS011;8075;47.766;8.846;2024-02-04T06:57:44;0.75;;;0.40;;
15952;SDS011;8075;47.766;8.846;2024-02-04T07:00:10;1.02;;;0.20;;
15952;SDS011;8075;47.766;8.846;2024-02-04T07:02:36;0.40;;;0.20;;
15952;SDS011;8075;47.766;8.846;2024-02-04T07:05:03;0.32;;;0.30;;
15952;SDS011;8075;47.766;8.846;2024-02-04T07:07:29;0.70;;;0.30;;
15952;SDS011;8075;47.766;8.846;2024-02-04T07:09:55;1.75;;;0.40;;
15952;SDS011;8075;47.766;8.846;2024-02-04T07:12:22;0.80;;;0.50;;
15952;SDS011;8075;47.766;8.846;2024-02-04T07:14:48;1.07;;;0.40;;
15952;SDS011;8075;47.766;8.846;2024-02-04T07:17:14;0.77;;;0.40;;
15952;SDS011;8075;47.766;8.846;2024-02-04T07:19:40;0.40;;;0.40;;
15952;SDS011;8075;47.766;8.846;2024-02-04T07:22:06;0.40;;;0.30;;
15952;SDS011;8075;47.766;8.846;2024-02-04T07:24:32;0.70;;;0.40;;
15952;SDS011;8075;47.766;8.846;2024-02-04T07:26:58;0.43;;;0.40;;
15952;SDS011;8075;47.766;8.846;2024-02-04T07:29:24;0.47;;;0.38;;
15952;SDS011;8075;47.766;8.846;2024-02-04T07:31:50;1.50;;;0.40;;
15952;SDS011;8075;47.766;8.846;2024-02-04T07:34:16;0.55;;;0.47;;
15952;SDS011;8075;47.766;8.846;2024-02-04T07:36:42;0.43;;;0.35;;
15952;SDS011;8075;47.766;8.846;2024-02-04T07:39:10;0.80;;;0.80;;
15952;SDS011;8075;47.766;8.846;2024-02-04T07:41:36;1.05;;;0.40;;
15952;SDS011;8075;47.766;8.846;2024-02-04T07:44:02;1.27;;;0.40;;
15952;SDS011;8075;47.766;8.846;2024-02-04T07:46:28;0.93;;;0.40;;
15952;SDS011;8075;47.766;8.846;2024-02-04T07:48:53;0.70;;;0.43;;
15952;SDS011;8075;47.766;8.846;2024-02-04T07:51:20;0.90;;;0.30;;
15952;SDS011;8075;47.766;8.846;2024-02-04T07:53:46;1.13;;;0.40;;
15952;SDS011;8075;47.766;8.846;2024-02-04T07:56:12;0.73;;;0.40;;
15952;SDS011;8075;47.766;8.846;2024-02-04T07:58:38;0.82;;;0.60;;
15952;SDS011;8075;47.766;8.846;2024-02-04T08:01:04;0.60;;;0.30;;
15952;SDS011;8075;47.766;8.846;2024-02-04T08:03:30;1.45;;;0.70;;
15952;SDS011;8075;47.766;8.846;2024-02-04T08:05:56;0.60;;;0.40;;
15952;SDS011;8075;47.766;8.846;2024-02-04T08:08:22;1.40;;;0.60;;
15952;SDS011;8075;47.766;8.846;2024-02-04T08:10:48;1.60;;;0.90;;
15952;SDS011;8075;47.766;8.846;2024-02-04T08:13:14;1.17;;;0.68;;
15952;SDS011;8075;47.766;8.846;2024-02-04T08:15:40;1.05;;;0.60;;
15952;SDS011;8075;47.766;8.846;2024-02-04T08:18:06;0.95;;;0.50;;
15952;SDS011;8075;47.766;8.846;2024-02-04T08:20:32;1.37;;;0.40;;
15952;SDS011;8075;47.766;8.846;2024-02-04T08:22:58;0.55;;;0.40;;
15952;SDS011;8075;47.766;8.846;2024-02-04T08:25:24;1.55;;;0.40;;
15952;SDS011;8075;47.766;8.846;2024-02-04T08:27:50;0.50;;;0.40;;
15952;SDS011;8075;47.766;8.846;2024-02-04T08:30:16;1.00;;;0.50;;
15952;SDS011;8075;47.766;8.846;2024-02-04T08:32:44;0.88;;;0.50;;
15952;SDS011;8075;47.766;8.846;2024-02-04T08:35:10;0.47;;;0.30;;
15952;SDS011;8075;47.766;8.846;2024-02-04T08:37:36;0.60;;;0.40;;
15952;SDS011;8075;47.766;8.846;2024-02-04T08:40:03;0.90;;;0.43;;
15952;SDS011;8075;47.766;8.846;2024-02-04T08:42:29;0.60;;;0.40;;
15952;SDS011;8075;47.766;8.846;2024-02-04T08:44:55;0.70;;;0.40;;
15952;SDS011;8075;47.766;8.846;2024-02-04T08:47:21;0.47;;;0.40;;
15952;SDS011;8075;47.766;8.846;2024-02-04T08:49:47;0.60;;;0.40;;
15952;SDS011;8075;47.766;8.846;2024-02-04T08:52:13;1.02;;;0.47;;
15952;SDS011;8075;47.766;8.846;2024-02-04T08:54:39;0.57;;;0.40;;
15952;SDS011;8075;47.766;8.846;2024-02-04T08:57:05;0.60;;;0.45;;
15952;SDS011;8075;47.766;8.846;2024-02-04T08:59:31;0.60;;;0.50;;
15952;SDS011;8075;47.766;8.846;2024-02-04T09:01:57;0.50;;;0.50;;
15952;SDS011;8075;47.766;8.846;2024-02-04T09:04:23;0.50;;;0.40;;
15952;SDS011;8075;47.766;8.846;2024-02-04T09:06:49;0.40;;;0.40;;
15952;SDS011;8075;47.766;8.846;2024-02-04T09:09:15;0.90;;;0.50;;
15952;SDS011;8075;47.766;8.846;2024-02-04T09:11:41;1.50;;;1.00;;
15952;SDS011;8075;47.766;8.846;2024-02-04T09:14:07;0.47;;;0.40;;
15952;SDS011;8075;47.766;8.846;2024-02-04T09:16:33;0.50;;;0.40;;
15952;SDS011;8075;47.766;8.846;2024-02-04T09:18:59;1.60;;;0.50;;
15952;SDS011;8075;47.766;8.846;2024-02-04T09:21:25;0.63;;;0.50;;
15952;SDS011;8075;47.766;8.846;2024-02-04T09:23:51;0.50;;;0.50;;
15952;SDS011;8075;47.766;8.846;2024-02-04T09:26:18;1.55;;;0.47;;
15952;SDS011;8075;47.766;8.846;2024-02-04T09:28:44;1.10;;;0.50;;
15952;SDS011;8075;47.766;8.846;2024-02-04T09:31:10;0.63;;;0.50;;
15952;SDS011;8075;47.766;8.846;2024-02-04T09:33:36;0.57;;;0.50;;
15952;SDS011;8075;47.766;8.846;2024-02-04T09:36:03;0.73;;;0.52;;
15952;SDS011;8075;47.766;8.846;2024-02-04T09:38:29;1.00;;;0.70;;
15952;SDS011;8075;47.766;8.846;2024-02-04T09:40:55;1.42;;;0.65;;
15952;SDS011;8075;47.766;8.846;2024-02-04T09:43:21;0.55;;;0.55;;
15952;SDS011;8075;47.766;8.846;2024-02-04T09:45:47;0.90;;;0.80;;
15952;SDS011;8075;47.766;8.846;2024-02-04T09:48:14;0.85;;;0.60;;
15952;SDS011;8075;47.766;8.846;2024-02-04T09:50:45;1.50;;;1.30;;
15952;SDS011;8075;47.766;8.846;2024-02-04T09:53:11;1.77;;;1.02;;
15952;SDS011;8075;47.766;8.846;2024-02-04T09:55:40;1.92;;;0.90;;
15952;SDS011;8075;47.766;8.846;2024-02-04T09:58:06;1.43;;;0.80;;
15952;SDS011;8075;47.766;8.846;2024-02-04T10:00:33;0.90;;;0.50;;
15952;SDS011;8075;47.766;8.846;2024-02-04T10:02:59;0.50;;;0.40;;
15952;SDS011;8075;47.766;8.846;2024-02-04T10:05:26;0.25;;;0.25;;
15952;SDS011;8075;47.766;8.846;2024-02-04T10:07:52;0.75;;;0.30;;
15952;SDS011;8075;47.766;8.846;2024-02-04T10:10:18;0.43;;;0.32;;
15952;SDS011;8075;47.766;8.846;2024-02-04T10:12:44;0.73;;;0.33;;
15952;SDS011;8075;47.766;8.846;2024-02-04T10:15:10;1.77;;;0.25;;
15952;SDS011;8075;47.766;8.846;2024-02-04T10:17:41;0.82;;;0.35;;
15952;SDS011;8075;47.766;8.846;2024-02-04T10:20:09;0.95;;;0.30;;
15952;SDS011;8075;47.766;8.846;2024-02-04T10:22:35;1.48;;;0.40;;
15952;SDS011;8075;47.766;8.846;2024-02-04T10:25:05;0.22;;;0.20;;
15952;SDS011;8075;47.766;8.846;2024-02-04T10:27:32;0.70;;;0.30;;
15952;SDS011;8075;47.766;8.846;2024-02-04T10:29:58;0.20;;;0.20;;
15952;SDS011;8075;47.766;8.846;2024-02-04T10:32:24;0.93;;;0.40;;
15952;SDS011;8075;47.766;8.846;2024-02-04T10:34:50;0.88;;;0.40;;
15952;SDS011;8075;47.766;8.846;2024-02-04T10:37:16;0.80;;;0.40;;
15952;SDS011;8075;47.766;8.846;2024-02-04T10:39:42;0.40;;;0.20;;
15952;SDS011;8075;47.766;8.846;2024-02-04T10:42:08;0.45;;;0.20;;
15952;SDS011;8075;47.766;8.846;2024-02-04T10:44:35;0.52;;;0.20;;
15952;SDS011;8075;47.766;8.846;2024-02-04T10:47:05;0.68;;;0.30;;
15952;SDS011;8075;47.766;8.846;2024-02-04T10:49:32;0.57;;;0.30;;
15952;SDS011;8075;47.766;8.846;2024-02-04T10:51:59;0.50;;;0.30;;
15952;SDS011;8075;47.766;8.846;2024-02-04T10:54:25;1.10;;;0.50;;
15952;SDS011;8075;47.766;8.846;2024-02-04T10:56:55;1.50;;;0.70;;
15952;SDS011;8075;47.766;8.846;2024-02-04T10:59:22;0.60;;;0.43;;
15952;SDS011;8075;47.766;8.846;2024-02-04T11:01:48;0.60;;;0.40;;
15952;SDS011;8075;47.766;8.846;2024-02-04T11:04:14;0.98;;;0.32;;
15952;SDS011;8075;47.766;8.846;2024-02-04T11:06:44;1.55;;;0.50;;
15952;SDS011;8075;47.766;8.846;2024-02-04T11:09:11;0.90;;;0.30;;
15952;SDS011;8075;47.766;8.846;2024-02-04T11:11:37;1.15;;;0.55;;
15952;SDS011;8075;47.766;8.846;2024-02-04T11:14:04;0.22;;;0.20;;
15952;SDS011;8075;47.766;8.846;2024-02-04T11:26:52;0.70;;;0.40;;
15952;SDS011;8075;47.766;8.846;2024-02-04T11:29:19;0.88;;;0.38;;
15952;SDS011;8075;47.766;8.846;2024-02-04T11:31:45;0.90;;;0.30;;
15952;SDS011;8075;47.766;8.846;2024-02-04T11:34:11;0.40;;;0.20;;
15952;SDS011;8075;47.766;8.846;2024-02-04T11:36:40;1.48;;;0.20;;
15952;SDS011;8075;47.766;8.846;2024-02-04T11:39:12;1.05;;;0.60;;
15952;SDS011;8075;47.766;8.846;2024-02-04T11:41:45;0.40;;;0.30;;
15952;SDS011;8075;47.766;8.846;2024-02-04T11:44:23;0.65;;;0.38;;
15952;SDS011;8075;47.766;8.846;2024-02-04T11:46:50;0.53;;;0.40;;
15952;SDS011;8075;47.766;8.846;2024-02-04T11:49:19;0.60;;;0.30;;
15952;SDS011;8075;47.766;8.846;2024-02-04T11:51:47;0.30;;;0.20;;
15952;SDS011;8075;47.766;8.846;2024-02-04T11:54:14;0.35;;;0.30;;
15952;SDS011;8075;47.766;8.846;2024-02-04T11:56:40;0.40;;;0.30;;
15952;SDS011;8075;47.766;8.846;2024-02-04T11:59:07;0.40;;;0.30;;
15952;SDS011;8075;47.766;8.846;2024-02-04T12:01:33;0.40;;;0.40;;
15952;SDS011;8075;47.766;8.846;2024-02-04T12:04:10;0.40;;;0.40;;
15952;SDS011;8075;47.766;8.846;2024-02-04T12:06:37;0.43;;;0.30;;
15952;SDS011;8075;47.766;8.846;2024-02-04T12:09:03;0.50;;;0.50;;
15952;SDS011;8075;47.766;8.846;2024-02-04T12:11:31;0.30;;;0.30;;
15952;SDS011;8075;47.766;8.846;2024-02-04T12:13:57;0.40;;;0.40;;
15952;SDS011;8075;47.766;8.846;2024-02-04T12:16:27;1.13;;;0.40;;
15952;SDS011;8075;47.766;8.846;2024-02-04T12:18:53;0.75;;;0.40;;
15952;SDS011;8075;47.766;8.846;2024-02-04T12:21:19;0.60;;;0.50;;
15952;SDS011;8075;47.766;8.846;2024-02-04T12:23:46;0.90;;;0.60;;
15952;SDS011;8075;47.766;8.846;2024-02-04T12:26:12;0.32;;;0.30;;
15952;SDS011;8075;47.766;8.846;2024-02-04T12:28:39;1.30;;;0.50;;
15952;SDS011;8075;47.766;8.846;2024-02-04T12:31:05;0.63;;;0.50;;
15952;SDS011;8075;47.766;8.846;2024-02-04T12:33:31;0.50;;;0.40;;
15952;SDS011;8075;47.766;8.846;2024-02-04T12:35:57;0.55;;;0.55;;
15952;SDS011;8075;47.766;8.846;2024-02-04T12:38:25;0.77;;;0.52;;
15952;SDS011;8075;47.766;8.846;2024-02-04T12:40:51;0.40;;;0.40;;
15952;SDS011;8075;47.766;8.846;2024-02-04T12:43:17;0.32;;;0.30;;
15952;SDS011;8075;47.766;8.846;2024-02-04T12:45:43;0.60;;;0.40;;
15952;SDS011;8075;47.766;8.846;2024-02-04T12:48:09;0.60;;;0.50;;
15952;SDS011;8075;47.766;8.846;2024-02-04T12:50:38;0.50;;;0.50;;
15952;SDS011;8075;47.766;8.846;2024-02-04T12:53:08;0.85;;;0.57;;
15952;SDS011;8075;47.766;8.846;2024-02-04T12:55:37;0.70;;;0.63;;
15952;SDS011;8075;47.766;8.846;2024-02-04T12:58:04;1.00;;;0.63;;
15952;SDS011;8075;47.766;8.846;2024-02-04T13:00:30;1.20;;;0.80;;
15952;SDS011;8075;47.766;8.846;2024-02-04T13:02:57;1.33;;;0.70;;
15952;SDS011;8075;47.766;8.846;2024-02-04T13:05:24;1.23;;;0.80;;
15952;SDS011;8075;47.766;8.846;2024-02-04T13:07:54;1.37;;;0.60;;
15952;SDS011;8075;47.766;8.846;2024-02-04T13:10:21;0.90;;;0.80;;
15952;SDS011;8075;47.766;8.846;2024-02-04T13:12:57;1.00;;;0.70;;
15952;SDS011;8075;47.766;8.846;2024-02-04T13:15:23;1.30;;;0.70;;
15952;SDS011;8075;47.766;8.846;2024-02-04T13:17:49;1.95;;;0.85;;
15952;SDS011;8075;47.766;8.846;2024-02-04T13:20:15;1.25;;;1.10;;
15952;SDS011;8075;47.766;8.846;2024-02-04T13:22:41;1.13;;;0.90;;
15952;SDS011;8075;47.766;8.846;2024-02-04T13:25:07;1.23;;;0.85;;
15952;SDS011;8075;47.766;8.846;2024-02-04T13:27:33;1.38;;;0.85;;
15952;SDS011;8075;47.766;8.846;2024-02-04T13:29:59;1.45;;;1.00;;
15952;SDS011;8075;47.766;8.846;2024-02-04T13:32:25;1.70;;;1.30;;
15952;SDS011;8075;47.766;8.846;2024-02-04T13:34:51;1.83;;;1.20;;
15952;SDS011;8075;47.766;8.846;2024-02-04T13:37:17;2.17;;;1.35;;
15952;SDS011;8075;47.766;8.846;2024-02-04T13:39:43;1.35;;;1.13;;
15952;SDS011;8075;47.766;8.846;2024-02-04T13:42:09;2.05;;;1.00;;
15952;SDS011;8075;47.766;8.846;2024-02-04T13:44:35;1.90;;;0.70;;
15952;SDS011;8075;47.766;8.846;2024-02-04T13:47:01;2.42;;;1.10;;
15952;SDS011;8075;47.766;8.846;2024-02-04T13:49:27;4.00;;;1.35;;
15952;SDS011;8075;47.766;8.846;2024-02-04T13:51:53;2.77;;;1.00;;
15952;SDS011;8075;47.766;8.846;2024-02-04T13:54:19;1.55;;;0.93;;
15952;SDS011;8075;47.766;8.846;2024-02-04T13:56:45;2.70;;;1.20;;
15952;SDS011;8075;47.766;8.846;2024-02-04T13:59:11;1.95;;;0.98;;
15952;SDS011;8075;47.766;8.846;2024-02-04T14:01:37;1.45;;;1.08;;
15952;SDS011;8075;47.766;8.846;2024-02-04T14:04:03;3.38;;;1.20;;
15952;SDS011;8075;47.766;8.846;2024-02-04T14:06:29;1.70;;;1.00;;
15952;SDS011;8075;47.766;8.846;2024-02-04T14:08:55;2.27;;;1.20;;
15952;SDS011;8075;47.766;8.846;2024-02-04T14:11:21;2.58;;;1.20;;
15952;SDS011;8075;47.766;8.846;2024-02-04T14:13:47;1.40;;;0.98;;
15952;SDS011;8075;47.766;8.846;2024-02-04T14:16:13;3.03;;;1.23;;
15952;SDS011;8075;47.766;8.846;2024-02-04T14:18:39;1.08;;;0.90;;
15952;SDS011;8075;47.766;8.846;2024-02-04T14:21:10;2.17;;;1.00;;
15952;SDS011;8075;47.766;8.846;2024-02-04T14:23:38;2.37;;;0.93;;
15952;SDS011;8075;47.766;8.846;2024-02-04T14:26:04;2.20;;;1.02;;
15952;SDS011;8075;47.766;8.846;2024-02-04T14:28:33;1.55;;;0.90;;
15952;SDS011;8075;47.766;8.846;2024-02-04T14:31:06;1.60;;;0.90;;
15952;SDS011;8075;47.766;8.846;2024-02-04T14:33:32;1.83;;;0.90;;
15952;SDS011;8075;47.766;8.846;2024-02-04T14:35:58;1.52;;;1.00;;
15952;SDS011;8075;47.766;8.846;2024-02-04T14:38:25;3.22;;;1.13;;
15952;SDS011;8075;47.766;8.846;2024-02-04T14:40:51;2.95;;;1.10;;
15952;SDS011;8075;47.766;8.846;2024-02-04T14:43:17;1.75;;;1.20;;
15952;SDS011;8075;47.766;8.846;2024-02-04T14:45:46;2.33;;;0.90;;
15952;SDS011;8075;47.766;8.846;2024-02-04T14:48:12;1.80;;;1.17;;
15952;SDS011;8075;47.766;8.846;2024-02-04T14:50:38;2.85;;;0.95;;
15952;SDS011;8075;47.766;8.846;2024-02-04T14:53:05;1.25;;;0.85;;
15952;SDS011;8075;47.766;8.846;2024-02-04T14:55:32;1.80;;;0.80;;
15952;SDS011;8075;47.766;8.846;2024-02-04T14:57:58;1.85;;;0.90;;
15952;SDS011;8075;47.766;8.846;2024-02-04T15:00:24;1.50;;;0.80;;
15952;SDS011;8075;47.766;8.846;2024-02-04T15:02:53;2.75;;;1.00;;
15952;SDS011;8075;47.766;8.846;2024-02-04T15:05:19;3.20;;;1.05;;
15952;SDS011;8075;47.766;8.846;2024-02-04T15:07:47;2.90;;;1.00;;
15952;SDS011;8075;47.766;8.846;2024-02-04T15:10:13;3.40;;;1.10;;